createdAt,value
2022-12-15T00:01:05.432Z,99778.72
2022-12-15T00:03:52.622Z,99780.41
2022-12-15T00:06:40.287Z,99777.88
2022-12-15T00:09:30.951Z,99769.22
2022-12-15T00:12:19.356Z,99772.88
2022-12-15T00:15:06.278Z,99763.06
2022-12-15T00:17:53.663Z,99750.94
2022-12-15T00:20:40.858Z,99754.00
2022-12-15T00:23:30.342Z,99746.03
2022-12-15T00:26:17.974Z,99746.34
2022-12-15T00:29:05.286Z,99750.97
2022-12-15T00:31:52.305Z,99751.38
2022-12-15T00:34:39.753Z,99745.25
2022-12-15T00:37:26.866Z,99742.34
2022-12-15T00:39:59.091Z,99748.78
2022-12-15T00:42:32.475Z,99750.59
2022-12-15T00:45:02.447Z,99754.78
2022-12-15T00:47:32.761Z,99758.44
2022-12-15T00:50:20.428Z,99765.97
2022-12-15T00:53:07.275Z,99777.41
2022-12-15T00:55:54.488Z,99768.91
2022-12-15T00:58:41.494Z,99771.97
2022-12-15T01:01:29.716Z,99770.69
2022-12-15T01:04:17.033Z,99785.34
2022-12-15T01:07:05.885Z,99775.72
2022-12-15T01:09:53.068Z,99785.47
2022-12-15T01:12:40.757Z,99781.56
2022-12-15T01:15:28.733Z,99771.59
2022-12-15T01:18:16.546Z,99777.88
2022-12-15T01:20:45.045Z,99791.69
2022-12-15T01:23:13.976Z,99795.19
2022-12-15T01:25:42.475Z,99797.16
2022-12-15T01:28:11.584Z,99802.91
2022-12-15T01:30:40.329Z,99798.56
2022-12-15T01:33:09.462Z,99802.50
2022-12-15T01:35:38.032Z,99801.94
2022-12-15T01:38:06.909Z,99791.47
2022-12-15T01:40:47.632Z,99793.84
2022-12-15T01:43:24.543Z,99798.59
2022-12-15T01:45:55.710Z,99799.75
2022-12-15T01:48:34.771Z,99799.47
2022-12-15T01:51:18.715Z,99800.19
2022-12-15T01:54:06.785Z,99806.06
2022-12-15T01:56:45.093Z,99802.56
2022-12-15T01:59:21.195Z,99802.16
2022-12-15T02:01:50.390Z,99803.69
2022-12-15T02:04:22.254Z,99796.16
2022-12-15T02:06:50.922Z,99805.66
2022-12-15T02:09:19.871Z,99815.81
2022-12-15T02:12:10.844Z,99807.72
2022-12-15T02:14:51.589Z,99816.25
2022-12-15T02:18:00.244Z,99816.38
2022-12-15T02:20:42.223Z,99814.97
2022-12-15T02:24:01.175Z,99824.00
2022-12-15T02:27:07.416Z,99824.84
2022-12-15T02:30:18.555Z,99819.53
2022-12-15T02:33:22.425Z,99812.97
2022-12-15T02:36:02.466Z,99816.19
2022-12-15T02:38:38.056Z,99818.41
2022-12-15T02:41:23.434Z,99810.47
2022-12-15T02:43:52.245Z,99820.25
2022-12-15T02:46:36.014Z,99818.16
2022-12-15T02:49:39.497Z,99830.19
2022-12-15T02:52:20.694Z,99828.81
2022-12-15T02:55:22.464Z,99821.25
2022-12-15T02:58:21.155Z,99791.66
2022-12-15T03:01:52.176Z,99794.59
2022-12-15T03:04:21.019Z,99791.25
2022-12-15T03:07:01.465Z,99790.69
2022-12-15T03:09:31.655Z,99783.28
2022-12-15T03:12:00.853Z,99781.06
2022-12-15T03:14:29.423Z,99776.44
2022-12-15T03:16:58.326Z,99800.91
2022-12-15T03:19:27.035Z,99803.69
2022-12-15T03:21:55.915Z,99819.75
2022-12-15T03:24:24.418Z,99821.81
2022-12-15T03:26:53.605Z,99828.13
2022-12-15T03:29:22.184Z,99827.69
2022-12-15T03:31:51.150Z,99824.31
2022-12-15T03:34:19.625Z,99816.47
2022-12-15T03:36:48.903Z,99810.31
2022-12-15T03:39:17.474Z,99817.00
2022-12-15T03:41:46.322Z,99824.94
2022-12-15T03:44:14.873Z,99826.78
2022-12-15T03:46:44.899Z,99827.91
2022-12-15T03:49:13.668Z,99833.50
2022-12-15T03:51:42.525Z,99845.25
2022-12-15T03:54:14.874Z,99860.78
2022-12-15T03:56:44.779Z,99856.59
2022-12-15T03:59:13.412Z,99847.94
2022-12-15T04:01:48.252Z,99853.94
2022-12-15T04:04:16.985Z,99850.03
2022-12-15T04:06:46.344Z,99850.88
2022-12-15T04:09:14.903Z,99872.38
2022-12-15T04:11:44.865Z,99868.50
2022-12-15T04:14:13.624Z,99873.50
2022-12-15T04:16:42.610Z,99872.41
2022-12-15T04:19:29.558Z,99879.94
2022-12-15T04:22:02.955Z,99881.91
2022-12-15T04:24:50.005Z,99884.56
2022-12-15T04:27:38.500Z,99879.94
2022-12-15T04:30:27.540Z,99878.97
2022-12-15T04:33:14.958Z,99886.38
2022-12-15T04:36:01.934Z,99889.31
2022-12-15T04:38:50.522Z,99887.22
2022-12-15T04:41:38.130Z,99896.00
2022-12-15T04:44:25.820Z,99902.72
2022-12-15T04:47:13.020Z,99913.47
2022-12-15T04:50:01.569Z,99916.53
2022-12-15T04:52:48.781Z,99909.69
2022-12-15T04:55:36.428Z,99919.06
2022-12-15T04:58:27.760Z,99924.38
2022-12-15T05:01:16.784Z,99930.63
2022-12-15T05:04:04.106Z,99921.84
2022-12-15T05:06:51.681Z,99927.41
2022-12-15T05:09:38.881Z,99911.66
2022-12-15T05:12:26.160Z,99913.88
2022-12-15T05:15:13.240Z,99921.59
2022-12-15T05:18:00.664Z,99919.34
2022-12-15T05:20:49.999Z,99906.19
2022-12-15T05:23:37.900Z,99910.28
2022-12-15T05:26:25.517Z,99909.84
2022-12-15T05:29:13.399Z,99913.06
2022-12-15T05:31:55.404Z,99912.63
2022-12-15T05:34:26.852Z,99917.09
2022-12-15T05:36:56.350Z,99915.84
2022-12-15T05:39:25.720Z,99922.66
2022-12-15T05:41:55.077Z,99939.28
2022-12-15T05:44:26.661Z,99944.88
2022-12-15T05:46:55.251Z,99953.97
2022-12-15T05:49:24.149Z,99951.75
2022-12-15T05:51:52.834Z,99968.25
2022-12-15T05:54:21.918Z,99966.56
2022-12-15T05:56:50.697Z,99962.09
2022-12-15T05:59:20.009Z,99960.72
2022-12-15T06:01:48.798Z,99965.03
2022-12-15T06:04:19.800Z,99960.84
2022-12-15T06:06:48.552Z,99960.84
2022-12-15T06:09:17.660Z,99970.47
2022-12-15T06:11:47.079Z,99960.00
2022-12-15T06:14:16.440Z,99961.56
2022-12-15T06:16:51.211Z,99966.88
2022-12-15T06:19:20.744Z,99974.69
2022-12-15T06:21:49.671Z,99988.50
2022-12-15T06:24:20.190Z,99989.75
2022-12-15T06:26:49.661Z,99998.72
2022-12-15T06:29:19.027Z,99993.97
2022-12-15T06:31:47.939Z,99998.72
2022-12-15T06:34:18.373Z,100011.69
2022-12-15T06:36:47.101Z,100024.00
2022-12-15T06:39:16.876Z,100032.50
2022-12-15T06:41:45.598Z,100045.09
2022-12-15T06:44:15.782Z,100043.69
2022-12-15T06:46:46.287Z,100044.94
2022-12-15T06:49:15.915Z,100052.44
2022-12-15T06:51:45.311Z,100064.72
2022-12-15T06:54:14.376Z,100070.19
2022-12-15T06:56:43.431Z,100061.53
2022-12-15T06:59:13.579Z,100061.56
2022-12-15T07:01:42.573Z,100067.44
2022-12-15T07:04:11.971Z,100062.81
2022-12-15T07:06:41.157Z,100066.91
2022-12-15T07:09:16.091Z,100060.34
2022-12-15T07:11:46.768Z,100059.38
2022-12-15T07:14:17.099Z,100054.78
2022-12-15T07:16:46.657Z,100067.22
2022-12-15T07:19:15.661Z,100061.66
2022-12-15T07:21:44.500Z,100068.63
2022-12-15T07:24:14.673Z,100074.78
2022-12-15T07:26:43.399Z,100078.13
2022-12-15T07:29:13.439Z,100072.13
2022-12-15T07:31:46.479Z,100078.41
2022-12-15T07:34:15.570Z,100085.13
2022-12-15T07:36:50.031Z,100083.97
2022-12-15T07:39:21.730Z,100107.75
2022-12-15T07:41:50.601Z,100114.44
2022-12-15T07:44:19.679Z,100106.19
2022-12-15T07:46:49.536Z,100113.47
2022-12-15T07:49:18.637Z,100111.31
2022-12-15T07:51:47.899Z,100130.19
2022-12-15T07:54:16.972Z,100128.91
2022-12-15T07:56:50.390Z,100133.63
2022-12-15T07:59:20.086Z,100138.53
2022-12-15T08:01:49.865Z,100145.03
2022-12-15T08:04:19.386Z,100151.47
2022-12-15T08:06:48.168Z,100150.63
2022-12-15T08:09:17.265Z,100135.16
2022-12-15T08:11:46.089Z,100147.03
2022-12-15T08:14:18.075Z,100157.00
2022-12-15T08:16:47.690Z,100155.63
2022-12-15T08:19:18.529Z,100164.16
2022-12-15T08:21:47.617Z,100161.94
2022-12-15T08:24:17.523Z,100154.16
2022-12-15T08:26:50.043Z,100150.25
2022-12-15T08:32:09.315Z,100131.09
2022-12-15T08:34:39.291Z,100133.22
2022-12-15T08:37:08.627Z,100140.22
2022-12-15T08:39:37.758Z,100126.94
2022-12-15T08:42:07.077Z,100128.06
2022-12-15T08:44:36.415Z,100129.84
2022-12-15T08:47:05.208Z,100128.31
2022-12-15T08:49:34.298Z,100113.34
2022-12-15T08:52:03.260Z,100120.06
2022-12-15T08:54:33.210Z,100120.31
2022-12-15T08:57:02.260Z,100113.63
2022-12-15T08:59:31.489Z,100121.56
2022-12-15T09:02:00.900Z,100123.91
2022-12-15T09:04:31.639Z,100127.81
2022-12-15T09:07:00.357Z,100125.31
2022-12-15T09:09:29.217Z,100132.56
2022-12-15T09:11:57.705Z,100141.06
2022-12-15T09:14:29.474Z,100147.63
2022-12-15T09:16:58.780Z,100148.03
2022-12-15T09:19:28.207Z,100150.09
2022-12-15T09:21:56.900Z,100149.53
2022-12-15T09:24:34.655Z,100148.22
2022-12-15T09:27:04.619Z,100153.16
2022-12-15T09:29:35.326Z,100151.09
2022-12-15T09:32:09.096Z,100145.34
2022-12-15T09:34:43.119Z,100147.31
2022-12-15T09:37:11.857Z,100140.34
2022-12-15T09:39:40.958Z,100137.31
2022-12-15T09:42:42.514Z,100130.94
2022-12-15T09:45:21.448Z,100118.63
2022-12-15T09:48:05.627Z,100124.84
2022-12-15T09:50:39.295Z,100112.63
2022-12-15T09:53:45.619Z,100108.03
2022-12-15T09:56:19.781Z,100117.00
2022-12-15T09:58:54.907Z,100127.91
2022-12-15T10:02:11.491Z,100127.31
2022-12-15T10:04:56.811Z,100137.41
2022-12-15T10:07:44.670Z,100150.25
2022-12-15T10:10:39.215Z,100160.28
2022-12-15T10:13:23.790Z,100148.13
2022-12-15T10:16:04.368Z,100128.41
2022-12-15T10:18:38.580Z,100118.78
2022-12-15T10:21:07.791Z,100118.56
2022-12-15T10:23:37.155Z,100120.53
2022-12-15T10:26:32.786Z,100099.28
2022-12-15T10:29:20.516Z,100090.91
2022-12-15T10:32:15.254Z,100103.75
2022-12-15T10:34:44.360Z,100122.44
2022-12-15T10:37:20.241Z,100130.56
2022-12-15T10:39:50.939Z,100142.06
2022-12-15T10:42:25.206Z,100148.78
2022-12-15T10:44:58.783Z,100145.13
2022-12-15T10:47:30.058Z,100146.03
2022-12-15T10:53:41.353Z,100131.91
2022-12-15T10:56:33.146Z,100140.19
2022-12-15T10:59:21.807Z,100135.59
2022-12-15T11:01:51.657Z,100134.06
2022-12-15T11:04:34.061Z,100128.59
2022-12-15T11:07:04.066Z,100115.88
2022-12-15T11:09:39.434Z,100112.94
2022-12-15T11:12:38.740Z,100113.09
2022-12-15T11:15:22.749Z,100095.88
2022-12-15T11:18:45.818Z,100089.59
2022-12-15T11:21:27.038Z,100085.09
2022-12-15T11:24:14.641Z,100085.78
2022-12-15T11:26:49.290Z,100092.63
2022-12-15T11:29:28.626Z,100091.78
2022-12-15T11:32:01.408Z,100090.38
2022-12-15T11:34:46.233Z,100089.50
2022-12-15T11:37:36.546Z,100088.94
2022-12-15T11:40:32.047Z,100077.19
2022-12-15T11:43:27.242Z,100055.56
2022-12-15T11:46:22.487Z,100047.59
2022-12-15T11:49:14.807Z,100029.44
2022-12-15T11:52:11.999Z,100027.09
2022-12-15T11:55:08.043Z,100020.38
2022-12-15T11:57:50.492Z,100008.38
2022-12-15T12:00:21.860Z,100007.97
2022-12-15T12:03:27.557Z,99989.22
2022-12-15T12:06:17.695Z,99985.31
2022-12-15T12:09:22.331Z,99966.56
2022-12-15T12:12:27.572Z,99962.66
2022-12-15T12:15:24.896Z,99962.09
2022-12-15T12:17:58.482Z,99961.13
2022-12-15T12:21:20.062Z,99952.03
2022-12-15T12:24:12.761Z,99952.31
2022-12-15T12:26:48.472Z,99950.78
2022-12-15T12:29:34.880Z,99947.84
2022-12-15T12:32:41.148Z,99948.28
2022-12-15T12:35:32.324Z,99942.41
2022-12-15T12:38:06.213Z,99936.41
2022-12-15T12:40:58.497Z,99927.72
2022-12-15T12:43:51.266Z,99921.72
2022-12-15T12:46:34.483Z,99903.41
2022-12-15T12:49:38.277Z,99901.44
2022-12-15T12:52:06.970Z,99900.19
2022-12-15T12:54:36.151Z,99910.28
2022-12-15T12:57:13.704Z,99915.84
2022-12-15T13:00:15.149Z,99923.81
2022-12-15T13:02:56.961Z,99909.81
2022-12-15T13:05:37.335Z,99902.41
2022-12-15T13:08:05.854Z,99890.91
2022-12-15T13:10:45.603Z,99900.44
2022-12-15T13:13:31.687Z,99908.69
2022-12-15T13:16:25.478Z,99903.38
2022-12-15T13:19:07.097Z,99899.19
2022-12-15T13:21:43.408Z,99893.56
2022-12-15T13:24:30.807Z,99884.91
2022-12-15T13:27:05.586Z,99887.03
2022-12-15T13:29:34.303Z,99895.41
2022-12-15T13:32:04.421Z,99908.00
2022-12-15T13:34:38.890Z,99900.59
2022-12-15T13:37:49.020Z,99887.19
2022-12-15T13:40:24.415Z,99886.09
2022-12-15T13:43:07.665Z,99896.69
2022-12-15T13:45:56.808Z,99900.88
2022-12-15T13:48:38.541Z,99905.66
2022-12-15T13:51:35.590Z,99909.28
2022-12-15T13:54:27.715Z,99920.47
2022-12-15T13:57:10.886Z,99923.94
2022-12-15T13:59:43.366Z,99924.63
2022-12-15T14:02:27.839Z,99926.91
2022-12-15T14:05:15.346Z,99926.59
2022-12-15T14:07:54.987Z,99931.78
2022-12-15T14:10:40.100Z,99939.88
2022-12-15T14:13:34.111Z,99941.97
2022-12-15T14:16:17.764Z,99937.22
2022-12-15T14:18:47.012Z,99938.91
2022-12-15T14:21:24.013Z,99944.63
2022-12-15T14:24:28.521Z,99934.69
2022-12-15T14:26:42.208Z,99921.28
2022-12-15T14:29:10.917Z,99917.06
2022-12-15T14:31:40.763Z,99908.81
2022-12-15T14:34:21.568Z,99907.03
2022-12-15T14:36:50.799Z,99913.59
2022-12-15T14:39:31.349Z,99901.03
2022-12-15T14:42:02.088Z,99900.34
2022-12-15T14:44:39.197Z,99905.91
2022-12-15T14:47:22.593Z,99890.00
2022-12-15T14:49:51.392Z,99886.91
2022-12-15T14:52:31.485Z,99884.41
2022-12-15T14:55:21.320Z,99878.00
2022-12-15T14:57:53.009Z,99874.91
2022-12-15T15:00:34.303Z,99870.84
2022-12-15T15:03:04.591Z,100144.78
2022-12-15T15:03:19.631Z,99862.91
2022-12-15T15:05:53.527Z,99856.06
2022-12-15T15:08:52.916Z,99852.97
2022-12-15T15:11:38.016Z,99842.38
2022-12-15T15:14:31.248Z,99830.75
2022-12-15T15:17:06.138Z,99830.19
2022-12-15T15:19:39.569Z,99831.44
2022-12-15T15:22:30.813Z,99822.63
2022-12-15T15:24:59.912Z,99820.66
2022-12-15T15:27:38.793Z,99810.56
2022-12-15T15:30:18.431Z,99800.50
2022-12-15T15:33:02.529Z,99792.97
2022-12-15T15:35:33.691Z,99781.22
2022-12-15T15:38:24.645Z,99776.34
2022-12-15T15:40:59.173Z,99761.56
2022-12-15T15:43:28.927Z,99749.13
2022-12-15T15:46:07.601Z,99745.47
2022-12-15T15:48:45.185Z,99744.09
2022-12-15T15:51:15.173Z,99727.78
2022-12-15T15:53:43.782Z,99716.47
2022-12-15T15:56:15.255Z,99712.28
2022-12-15T15:58:44.212Z,99694.28
2022-12-15T16:01:14.456Z,99684.78
2022-12-15T16:03:43.387Z,99667.63
2022-12-15T16:06:20.857Z,99659.81
2022-12-15T16:08:51.648Z,99646.13
2022-12-15T16:11:25.541Z,99655.88
2022-12-15T16:13:54.114Z,99657.56
2022-12-15T16:16:25.624Z,99651.41
2022-12-15T16:18:54.378Z,99663.75
2022-12-15T16:21:27.446Z,99657.47
2022-12-15T16:23:56.155Z,99665.53
2022-12-15T16:26:31.635Z,99658.94
2022-12-15T16:29:00.574Z,99653.19
2022-12-15T16:31:39.134Z,99643.44
2022-12-15T16:39:34.548Z,99623.41
2022-12-15T16:42:04.837Z,99614.91
2022-12-15T16:44:33.380Z,99603.72
2022-12-15T16:47:02.829Z,99593.72
2022-12-15T16:49:35.071Z,99592.72
2022-12-15T16:56:08.752Z,99585.25
2022-12-15T16:58:37.773Z,99586.81
2022-12-15T17:01:06.374Z,99586.97
2022-12-15T17:03:36.295Z,99579.00
2022-12-15T17:06:07.290Z,99579.00
2022-12-15T17:08:44.275Z,99566.63
2022-12-15T17:11:19.691Z,99566.47
2022-12-15T17:13:51.642Z,99549.16
2022-12-15T17:16:21.680Z,99535.38
2022-12-15T17:18:51.786Z,99552.28
2022-12-15T17:21:31.593Z,99558.31
2022-12-15T17:24:06.957Z,99578.94
2022-12-15T17:26:36.593Z,99583.84
2022-12-15T17:29:13.401Z,99582.09
2022-12-15T17:31:41.885Z,99577.34
2022-12-15T17:34:32.970Z,99572.25
2022-12-15T17:37:03.538Z,99566.53
2022-12-15T17:39:33.830Z,99575.56
2022-12-15T17:42:03.089Z,99578.00
2022-12-15T17:44:37.832Z,99586.97
2022-12-15T17:47:08.848Z,99588.09
2022-12-15T17:49:38.961Z,99601.91
2022-12-15T17:52:30.476Z,99600.53
2022-12-15T17:54:59.317Z,99618.44
2022-12-15T17:57:30.399Z,99631.72
2022-12-15T18:00:02.116Z,99617.75
2022-12-15T18:02:34.184Z,99606.72
2022-12-15T18:05:05.240Z,99616.66
2022-12-15T18:07:33.607Z,99625.44
2022-12-15T18:10:02.247Z,99621.59
2022-12-15T18:12:30.597Z,99629.84
2022-12-15T18:14:59.431Z,99618.69
2022-12-15T18:17:28.740Z,99630.72
2022-12-15T18:19:57.511Z,99624.03
2022-12-15T18:22:25.994Z,99614.28
2022-12-15T18:24:54.848Z,99621.28
2022-12-15T18:27:28.501Z,99599.25
2022-12-15T18:29:57.380Z,99606.34
2022-12-15T18:32:27.161Z,99585.88
2022-12-15T18:34:56.072Z,99587.41
2022-12-15T18:37:25.406Z,99577.91
2022-12-15T18:40:02.511Z,99562.41
2022-12-15T18:42:32.826Z,99552.94
2022-12-15T18:45:05.233Z,99524.59
2022-12-15T18:47:34.188Z,99532.06
2022-12-15T18:50:02.830Z,99526.56
2022-12-15T18:52:34.639Z,99520.91
2022-12-15T18:55:03.911Z,99524.25
2022-12-15T18:57:35.031Z,99523.06
2022-12-15T19:00:27.949Z,99517.81
2022-12-15T19:02:57.701Z,99506.63
2022-12-15T19:05:29.071Z,99507.66
2022-12-15T19:08:02.520Z,99499.69
2022-12-15T19:10:33.579Z,99493.84
2022-12-15T19:13:02.306Z,99485.19
2022-12-15T19:15:31.330Z,99481.88
2022-12-15T19:18:18.596Z,99477.69
2022-12-15T19:21:06.442Z,99479.97
2022-12-15T19:23:35.275Z,99472.47
2022-12-15T19:26:04.629Z,99481.56
2022-12-15T19:28:33.417Z,99479.88
2022-12-15T19:31:02.271Z,99482.88
2022-12-15T19:33:31.419Z,99477.16
2022-12-15T19:36:00.558Z,99475.78
2022-12-15T19:38:31.893Z,99477.09
2022-12-15T19:41:00.930Z,99479.06
2022-12-15T19:43:29.820Z,99467.34
2022-12-15T19:46:00.299Z,99481.44
2022-12-15T19:48:28.977Z,99496.81
2022-12-15T19:50:58.424Z,99508.44
2022-12-15T19:53:28.958Z,99513.50
2022-12-15T19:55:59.196Z,99505.16
2022-12-15T19:58:33.042Z,99494.69
2022-12-15T20:01:09.205Z,99461.28
2022-12-15T20:03:38.358Z,99420.75
2022-12-15T20:06:23.410Z,99414.56
2022-12-15T20:08:54.750Z,99401.09
2022-12-15T20:11:29.424Z,99393.81
2022-12-15T20:13:58.276Z,99389.78
2022-12-15T20:16:27.180Z,99371.59
2022-12-15T20:18:56.837Z,99362.53
2022-12-15T20:21:29.700Z,99351.56
2022-12-15T20:24:02.292Z,99358.50
2022-12-15T20:26:31.245Z,99367.34
2022-12-15T20:28:59.654Z,99374.97
2022-12-15T20:31:28.826Z,99380.59
2022-12-15T20:33:57.592Z,99388.03
2022-12-15T20:36:30.081Z,99386.97
2022-12-15T20:38:59.196Z,99389.97
2022-12-15T20:41:29.906Z,99419.44
2022-12-15T20:43:59.095Z,99436.81
2022-12-15T20:46:36.648Z,99437.41
2022-12-15T20:49:09.640Z,99438.56
2022-12-15T20:51:39.746Z,99419.59
2022-12-15T20:54:18.425Z,99420.88
2022-12-15T20:56:49.905Z,99409.59
2022-12-15T20:59:19.663Z,99431.09
2022-12-15T21:01:49.320Z,99437.53
2022-12-15T21:04:30.289Z,99449.81
2022-12-15T21:06:59.494Z,99447.34
2022-12-15T21:09:29.287Z,99454.00
2022-12-15T21:12:00.264Z,99454.38
2022-12-15T21:14:31.801Z,99457.97
2022-12-15T21:17:01.042Z,99469.47
2022-12-15T21:19:30.652Z,99473.50
2022-12-15T21:22:00.039Z,99472.19
2022-12-15T21:24:29.499Z,99479.22
2022-12-15T21:26:58.639Z,99479.88
2022-12-15T21:29:28.985Z,99496.50
2022-12-15T21:31:58.082Z,99499.16
2022-12-15T21:34:26.859Z,99502.44
2022-12-15T21:36:55.884Z,99485.00
2022-12-15T21:39:35.018Z,99479.00
2022-12-15T21:42:11.771Z,99467.16
2022-12-15T21:44:41.969Z,99474.72
2022-12-15T21:47:48.118Z,99462.75
2022-12-15T21:50:17.731Z,99463.34
2022-12-15T21:52:47.459Z,99453.06
2022-12-15T21:55:17.349Z,99451.50
2022-12-15T21:57:46.548Z,99450.97
2022-12-15T22:00:17.492Z,99439.13
2022-12-15T22:02:47.337Z,99449.38
2022-12-15T22:05:24.619Z,99452.31
2022-12-15T22:07:55.459Z,99441.16
2022-12-15T22:10:25.219Z,99434.34
2022-12-15T22:12:59.244Z,99422.78
2022-12-15T22:15:28.249Z,99414.97
2022-12-15T22:17:58.572Z,99398.22
2022-12-15T22:20:27.071Z,99400.19
2022-12-15T22:22:55.852Z,99405.78
2022-12-15T22:25:25.967Z,99410.53
2022-12-15T22:27:55.072Z,99407.19
2022-12-15T22:30:25.912Z,99410.00
2022-12-15T22:32:54.765Z,99394.69
2022-12-15T22:35:27.372Z,99406.44
2022-12-15T22:37:56.586Z,99404.91
2022-12-15T22:40:25.914Z,99406.13
2022-12-15T22:42:57.239Z,99401.75
2022-12-15T22:45:26.348Z,99419.31
2022-12-15T22:47:55.364Z,99406.34
2022-12-15T22:50:25.761Z,99390.88
2022-12-15T22:52:55.033Z,99392.84
2022-12-15T22:55:24.423Z,99397.59
2022-12-15T22:58:00.003Z,99399.72
2022-12-15T23:00:28.708Z,99404.84
2022-12-15T23:05:30.944Z,99399.47
2022-12-15T23:07:59.888Z,99404.75
2022-12-15T23:10:46.897Z,99411.34
2022-12-15T23:13:16.997Z,99411.47
2022-12-15T23:16:03.976Z,99416.91
2022-12-15T23:18:32.886Z,99424.88
2022-12-15T23:21:01.928Z,99413.56
2022-12-15T23:23:33.076Z,99405.94
2022-12-15T23:26:01.808Z,99411.50
2022-12-15T23:28:31.767Z,99422.25
2022-12-15T23:31:00.444Z,99428.00
2022-12-15T23:33:30.705Z,99432.31
2022-12-15T23:36:00.199Z,99424.09
2022-12-15T23:38:30.056Z,99427.44
2022-12-15T23:40:58.761Z,99423.28
2022-12-15T23:43:30.682Z,99417.28
2022-12-15T23:46:06.765Z,99422.84
2022-12-15T23:48:38.140Z,99401.84
2022-12-15T23:51:12.240Z,99399.59
2022-12-15T23:53:41.382Z,99386.66
2022-12-15T23:56:18.405Z,99383.84
2022-12-15T23:58:48.370Z,99379.69
